sensor_id;sensor_type;location;lat;lon;timestamp;pressure;altitude;pressure_sealevel;temperature;humidity
64460;BME280;50828;53.756;21.140;2022-12-10T00:03:30;99147.80;;;1.62;70.66
64460;BME280;50828;53.756;21.140;2022-12-10T00:08:38;99142.95;;;1.61;70.58
64460;BME280;50828;53.756;21.140;2022-12-10T00:13:47;99145.20;;;1.61;70.58
64460;BME280;50828;53.756;21.140;2022-12-10T00:18:56;99145.71;;;1.61;70.68
64460;BME280;50828;53.756;21.140;2022-12-10T00:24:05;99144.34;;;1.61;70.57
64460;BME280;50828;53.756;21.140;2022-12-10T00:29:13;99153.20;;;1.60;70.52
64460;BME280;50828;53.756;21.140;2022-12-10T00:34:21;99157.02;;;1.59;70.73
64460;BME280;50828;53.756;21.140;2022-12-10T00:39:29;99159.85;;;1.57;70.67
64460;BME280;50828;53.756;21.140;2022-12-10T00:44:36;99159.51;;;1.56;70.55
64460;BME280;50828;53.756;21.140;2022-12-10T00:49:43;99166.13;;;1.55;70.73
64460;BME280;50828;53.756;21.140;2022-12-10T00:54:50;99162.20;;;1.52;70.67
64460;BME280;50828;53.756;21.140;2022-12-10T00:59:58;99164.48;;;1.51;70.52
64460;BME280;50828;53.756;21.140;2022-12-10T01:05:05;99165.73;;;1.50;70.69
64460;BME280;50828;53.756;21.140;2022-12-10T01:10:13;99169.72;;;1.48;70.48
64460;BME280;50828;53.756;21.140;2022-12-10T01:15:20;99163.87;;;1.46;70.65
64460;BME280;50828;53.756;21.140;2022-12-10T01:20:28;99163.59;;;1.43;70.59
64460;BME280;50828;53.756;21.140;2022-12-10T01:25:35;99158.95;;;1.41;70.69
64460;BME280;50828;53.756;21.140;2022-12-10T01:30:44;99157.73;;;1.39;70.60
64460;BME280;50828;53.756;21.140;2022-12-10T01:35:51;99153.09;;;1.38;70.80
64460;BME280;50828;53.756;21.140;2022-12-10T01:40:59;99154.34;;;1.36;70.62
64460;BME280;50828;53.756;21.140;2022-12-10T01:46:06;99150.02;;;1.35;70.75
64460;BME280;50828;53.756;21.140;2022-12-10T01:51:15;99146.56;;;1.34;70.81
64460;BME280;50828;53.756;21.140;2022-12-10T01:56:23;99142.07;;;1.34;70.69
64460;BME280;50828;53.756;21.140;2022-12-10T02:01:36;99136.00;;;1.33;70.80
64460;BME280;50828;53.756;21.140;2022-12-10T02:06:56;99130.98;;;1.33;70.80
64460;BME280;50828;53.756;21.140;2022-12-10T02:12:11;99124.36;;;1.35;70.95
64460;BME280;50828;53.756;21.140;2022-12-10T02:17:26;99117.61;;;1.34;70.87
64460;BME280;50828;53.756;21.140;2022-12-10T02:22:37;99117.23;;;1.36;70.86
64460;BME280;50828;53.756;21.140;2022-12-10T02:27:51;99115.80;;;1.37;70.96
64460;BME280;50828;53.756;21.140;2022-12-10T02:33:02;99112.30;;;1.39;70.98
64460;BME280;50828;53.756;21.140;2022-12-10T02:38:15;99113.14;;;1.40;71.00
64460;BME280;50828;53.756;21.140;2022-12-10T02:43:25;99116.57;;;1.43;70.91
64460;BME280;50828;53.756;21.140;2022-12-10T02:48:34;99113.42;;;1.43;70.86
64460;BME280;50828;53.756;21.140;2022-12-10T02:53:44;99118.23;;;1.46;70.85
64460;BME280;50828;53.756;21.140;2022-12-10T02:59:01;99119.27;;;1.47;70.97
64460;BME280;50828;53.756;21.140;2022-12-10T03:04:16;99122.35;;;1.49;71.00
64460;BME280;50828;53.756;21.140;2022-12-10T03:09:26;99121.65;;;1.49;70.85
64460;BME280;50828;53.756;21.140;2022-12-10T03:14:34;99123.54;;;1.50;71.00
64460;BME280;50828;53.756;21.140;2022-12-10T03:19:44;99123.56;;;1.49;71.00
64460;BME280;50828;53.756;21.140;2022-12-10T03:24:53;99118.19;;;1.49;70.97
64460;BME280;50828;53.756;21.140;2022-12-10T03:30:02;99115.75;;;1.49;70.79
64460;BME280;50828;53.756;21.140;2022-12-10T03:35:11;99116.96;;;1.50;70.85
64460;BME280;50828;53.756;21.140;2022-12-10T03:40:22;99113.66;;;1.50;70.89
64460;BME280;50828;53.756;21.140;2022-12-10T03:45:30;99112.94;;;1.51;70.80
64460;BME280;50828;53.756;21.140;2022-12-10T03:50:37;99113.10;;;1.52;70.79
64460;BME280;50828;53.756;21.140;2022-12-10T03:55:44;99109.66;;;1.49;70.83
64460;BME280;50828;53.756;21.140;2022-12-10T04:00:51;99110.02;;;1.50;70.92
64460;BME280;50828;53.756;21.140;2022-12-10T04:06:04;99113.69;;;1.48;70.77
64460;BME280;50828;53.756;21.140;2022-12-10T04:11:13;99114.58;;;1.46;70.78
64460;BME280;50828;53.756;21.140;2022-12-10T04:16:21;99114.45;;;1.44;70.78
64460;BME280;50828;53.756;21.140;2022-12-10T04:21:36;99114.14;;;1.43;70.90
64460;BME280;50828;53.756;21.140;2022-12-10T04:27:04;99117.10;;;1.42;70.91
64460;BME280;50828;53.756;21.140;2022-12-10T04:32:12;99119.02;;;1.41;70.79
64460;BME280;50828;53.756;21.140;2022-12-10T04:37:21;99117.79;;;1.42;70.94
64460;BME280;50828;53.756;21.140;2022-12-10T04:42:28;99114.67;;;1.42;70.82
64460;BME280;50828;53.756;21.140;2022-12-10T04:47:36;99122.30;;;1.43;70.86
64460;BME280;50828;53.756;21.140;2022-12-10T04:52:43;99125.76;;;1.44;70.77
64460;BME280;50828;53.756;21.140;2022-12-10T04:58:00;99127.33;;;1.42;70.70
64460;BME280;50828;53.756;21.140;2022-12-10T05:03:07;99128.88;;;1.43;70.94
64460;BME280;50828;53.756;21.140;2022-12-10T05:08:16;99125.93;;;1.43;70.90
64460;BME280;50828;53.756;21.140;2022-12-10T05:13:23;99131.77;;;1.45;70.82
64460;BME280;50828;53.756;21.140;2022-12-10T05:18:31;99131.95;;;1.46;70.79
64460;BME280;50828;53.756;21.140;2022-12-10T05:23:41;99138.00;;;1.46;70.84
64460;BME280;50828;53.756;21.140;2022-12-10T05:28:50;99135.06;;;1.46;70.87
64460;BME280;50828;53.756;21.140;2022-12-10T05:33:59;99131.59;;;1.46;70.83
64460;BME280;50828;53.756;21.140;2022-12-10T05:39:06;99138.19;;;1.46;70.74
64460;BME280;50828;53.756;21.140;2022-12-10T05:44:15;99147.36;;;1.47;70.64
64460;BME280;50828;53.756;21.140;2022-12-10T05:49:22;99151.17;;;1.48;70.70
64460;BME280;50828;53.756;21.140;2022-12-10T05:54:29;99151.86;;;1.48;70.69
64460;BME280;50828;53.756;21.140;2022-12-10T05:59:37;99153.79;;;1.47;70.75
64460;BME280;50828;53.756;21.140;2022-12-10T06:04:44;99160.21;;;1.46;70.76
64460;BME280;50828;53.756;21.140;2022-12-10T06:09:51;99165.44;;;1.46;70.63
64460;BME280;50828;53.756;21.140;2022-12-10T06:14:58;99168.39;;;1.45;70.64
64460;BME280;50828;53.756;21.140;2022-12-10T06:20:07;99169.14;;;1.43;70.68
64460;BME280;50828;53.756;21.140;2022-12-10T06:25:15;99171.92;;;1.43;70.66
64460;BME280;50828;53.756;21.140;2022-12-10T06:30:22;99173.33;;;1.41;70.67
64460;BME280;50828;53.756;21.140;2022-12-10T06:35:30;99172.84;;;1.40;70.68
64460;BME280;50828;53.756;21.140;2022-12-10T06:40:40;99170.25;;;1.39;70.56
64460;BME280;50828;53.756;21.140;2022-12-10T06:45:47;99172.34;;;1.38;70.57
64460;BME280;50828;53.756;21.140;2022-12-10T06:50:54;99176.70;;;1.37;70.55
64460;BME280;50828;53.756;21.140;2022-12-10T06:56:03;99178.27;;;1.37;70.50
64460;BME280;50828;53.756;21.140;2022-12-10T07:01:13;99171.89;;;1.35;70.50
64460;BME280;50828;53.756;21.140;2022-12-10T07:06:21;99182.31;;;1.34;70.47
64460;BME280;50828;53.756;21.140;2022-12-10T07:11:29;99176.27;;;1.32;70.61
64460;BME280;50828;53.756;21.140;2022-12-10T07:16:36;99175.23;;;1.33;70.52
64460;BME280;50828;53.756;21.140;2022-12-10T07:21:45;99179.05;;;1.32;70.57
64460;BME280;50828;53.756;21.140;2022-12-10T07:26:52;99176.98;;;1.32;70.44
64460;BME280;50828;53.756;21.140;2022-12-10T07:32:00;99173.69;;;1.31;70.46
64460;BME280;50828;53.756;21.140;2022-12-10T07:37:07;99170.92;;;1.30;70.43
64460;BME280;50828;53.756;21.140;2022-12-10T07:42:14;99166.41;;;1.31;70.45
64460;BME280;50828;53.756;21.140;2022-12-10T07:47:21;99165.71;;;1.31;70.46
64460;BME280;50828;53.756;21.140;2022-12-10T07:52:28;99166.95;;;1.29;70.50
64460;BME280;50828;53.756;21.140;2022-12-10T07:57:36;99169.02;;;1.30;70.41
64460;BME280;50828;53.756;21.140;2022-12-10T08:02:43;99178.38;;;1.31;70.45
64460;BME280;50828;53.756;21.140;2022-12-10T08:07:50;99180.98;;;1.31;70.36
64460;BME280;50828;53.756;21.140;2022-12-10T08:13:06;99179.40;;;1.32;70.32
64460;BME280;50828;53.756;21.140;2022-12-10T08:18:13;99174.05;;;1.31;70.42
64460;BME280;50828;53.756;21.140;2022-12-10T08:23:21;99171.77;;;1.31;70.26
64460;BME280;50828;53.756;21.140;2022-12-10T08:28:28;99178.55;;;1.32;70.32
64460;BME280;50828;53.756;21.140;2022-12-10T08:33:36;99187.73;;;1.32;70.23
64460;BME280;50828;53.756;21.140;2022-12-10T08:38:44;99189.46;;;1.32;70.17
64460;BME280;50828;53.756;21.140;2022-12-10T08:43:52;99190.50;;;1.33;70.17
64460;BME280;50828;53.756;21.140;2022-12-10T08:49:00;99184.93;;;1.33;70.24
64460;BME280;50828;53.756;21.140;2022-12-10T08:54:07;99183.51;;;1.35;70.16
64460;BME280;50828;53.756;21.140;2022-12-10T08:59:14;99186.97;;;1.36;70.21
64460;BME280;50828;53.756;21.140;2022-12-10T09:04:22;99180.90;;;1.36;70.16
64460;BME280;50828;53.756;21.140;2022-12-10T09:09:30;99186.09;;;1.36;70.07
64460;BME280;50828;53.756;21.140;2022-12-10T09:14:38;99187.15;;;1.36;70.10
64460;BME280;50828;53.756;21.140;2022-12-10T09:19:45;99185.77;;;1.35;69.99
64460;BME280;50828;53.756;21.140;2022-12-10T09:24:53;99184.91;;;1.34;69.86
64460;BME280;50828;53.756;21.140;2022-12-10T09:30:00;99184.39;;;1.33;69.93
64460;BME280;50828;53.756;21.140;2022-12-10T09:35:08;99180.07;;;1.33;69.92
64460;BME280;50828;53.756;21.140;2022-12-10T09:40:18;99177.45;;;1.34;69.88
64460;BME280;50828;53.756;21.140;2022-12-10T09:45:40;99177.23;;;1.37;69.94
64460;BME280;50828;53.756;21.140;2022-12-10T09:50:55;99173.73;;;1.38;69.80
64460;BME280;50828;53.756;21.140;2022-12-10T09:56:06;99166.97;;;1.38;69.74
64460;BME280;50828;53.756;21.140;2022-12-10T10:01:25;99166.95;;;1.39;69.68
64460;BME280;50828;53.756;21.140;2022-12-10T10:06:34;99163.48;;;1.38;69.75
64460;BME280;50828;53.756;21.140;2022-12-10T10:11:42;99159.48;;;1.39;69.66
64460;BME280;50828;53.756;21.140;2022-12-10T10:16:53;99159.83;;;1.40;69.64
64460;BME280;50828;53.756;21.140;2022-12-10T10:22:03;99169.35;;;1.41;69.62
64460;BME280;50828;53.756;21.140;2022-12-10T10:27:15;99164.49;;;1.40;69.50
64460;BME280;50828;53.756;21.140;2022-12-10T10:32:43;99155.37;;;1.36;69.50
64460;BME280;50828;53.756;21.140;2022-12-10T10:37:55;99156.02;;;1.39;69.32
64460;BME280;50828;53.756;21.140;2022-12-10T10:43:03;99149.09;;;1.39;69.36
64460;BME280;50828;53.756;21.140;2022-12-10T10:48:16;99149.97;;;1.38;69.10
64460;BME280;50828;53.756;21.140;2022-12-10T10:53:32;99151.73;;;1.36;69.04
64460;BME280;50828;53.756;21.140;2022-12-10T10:58:57;99164.09;;;1.34;69.09
64460;BME280;50828;53.756;21.140;2022-12-10T11:04:05;99161.70;;;1.32;69.08
64460;BME280;50828;53.756;21.140;2022-12-10T11:09:20;99166.90;;;1.33;68.96
64460;BME280;50828;53.756;21.140;2022-12-10T11:14:29;99164.80;;;1.33;68.92
64460;BME280;50828;53.756;21.140;2022-12-10T11:19:53;99169.31;;;1.33;68.87
64460;BME280;50828;53.756;21.140;2022-12-10T11:25:01;99166.09;;;1.29;68.68
64460;BME280;50828;53.756;21.140;2022-12-10T11:30:11;99164.02;;;1.28;68.70
64460;BME280;50828;53.756;21.140;2022-12-10T11:35:24;99166.95;;;1.29;68.82
64460;BME280;50828;53.756;21.140;2022-12-10T11:40:42;99166.45;;;1.28;68.67
64460;BME280;50828;53.756;21.140;2022-12-10T11:46:05;99166.97;;;1.28;68.51
64460;BME280;50828;53.756;21.140;2022-12-10T11:51:21;99168.70;;;1.29;68.62
64460;BME280;50828;53.756;21.140;2022-12-10T11:56:40;99166.61;;;1.29;68.49
64460;BME280;50828;53.756;21.140;2022-12-10T12:02:13;99166.25;;;1.30;68.57
64460;BME280;50828;53.756;21.140;2022-12-10T12:07:34;99155.12;;;1.31;68.53
64460;BME280;50828;53.756;21.140;2022-12-10T12:12:48;99148.19;;;1.31;68.58
64460;BME280;50828;53.756;21.140;2022-12-10T12:18:04;99145.55;;;1.33;68.50
64460;BME280;50828;53.756;21.140;2022-12-10T12:23:18;99146.40;;;1.33;68.33
64460;BME280;50828;53.756;21.140;2022-12-10T12:28:30;99145.03;;;1.33;68.24
64460;BME280;50828;53.756;21.140;2022-12-10T12:33:43;99146.09;;;1.32;68.25
64460;BME280;50828;53.756;21.140;2022-12-10T12:38:58;99141.44;;;1.29;68.07
64460;BME280;50828;53.756;21.140;2022-12-10T12:44:14;99141.36;;;1.25;67.97
64460;BME280;50828;53.756;21.140;2022-12-10T12:49:27;99136.20;;;1.22;67.92
64460;BME280;50828;53.756;21.140;2022-12-10T12:54:37;99136.97;;;1.17;67.80
64460;BME280;50828;53.756;21.140;2022-12-10T12:59:54;99143.40;;;1.17;67.79
64460;BME280;50828;53.756;21.140;2022-12-10T13:05:04;99146.06;;;1.14;67.69
64460;BME280;50828;53.756;21.140;2022-12-10T13:10:45;99146.62;;;1.11;67.63
64460;BME280;50828;53.756;21.140;2022-12-10T13:15:53;99145.66;;;1.06;67.55
64460;BME280;50828;53.756;21.140;2022-12-10T13:21:25;99149.15;;;1.06;67.64
64460;BME280;50828;53.756;21.140;2022-12-10T13:26:32;99152.12;;;1.04;67.82
64460;BME280;50828;53.756;21.140;2022-12-10T13:31:40;99156.81;;;1.03;67.79
64460;BME280;50828;53.756;21.140;2022-12-10T13:42:34;99170.38;;;1.01;67.61
64460;BME280;50828;53.756;21.140;2022-12-10T13:53:54;99178.22;;;0.99;67.64
64460;BME280;50828;53.756;21.140;2022-12-10T13:59:18;99179.81;;;0.97;67.50
64460;BME280;50828;53.756;21.140;2022-12-10T14:10:17;99183.85;;;0.93;67.46
64460;BME280;50828;53.756;21.140;2022-12-10T14:15:26;99179.90;;;0.90;67.46
64460;BME280;50828;53.756;21.140;2022-12-10T14:20:35;99188.45;;;0.88;67.36
64460;BME280;50828;53.756;21.140;2022-12-10T14:25:46;99188.98;;;0.86;67.31
64460;BME280;50828;53.756;21.140;2022-12-10T14:30:53;99192.50;;;0.83;67.25
64460;BME280;50828;53.756;21.140;2022-12-10T14:36:01;99199.83;;;0.80;67.00
64460;BME280;50828;53.756;21.140;2022-12-10T14:41:12;99202.67;;;0.75;66.74
64460;BME280;50828;53.756;21.140;2022-12-10T14:46:22;99199.66;;;0.69;66.55
64460;BME280;50828;53.756;21.140;2022-12-10T14:51:33;99199.73;;;0.63;66.61
64460;BME280;50828;53.756;21.140;2022-12-10T14:56:43;99193.09;;;0.55;66.47
64460;BME280;50828;53.756;21.140;2022-12-10T15:01:52;99197.35;;;0.48;66.46
64460;BME280;50828;53.756;21.140;2022-12-10T15:07:03;99196.39;;;0.42;66.56
64460;BME280;50828;53.756;21.140;2022-12-10T15:12:24;99192.28;;;0.37;66.55
64460;BME280;50828;53.756;21.140;2022-12-10T15:17:38;99195.80;;;0.34;66.45
64460;BME280;50828;53.756;21.140;2022-12-10T15:22:46;99204.67;;;0.31;66.43
64460;BME280;50828;53.756;21.140;2022-12-10T15:28:00;99210.09;;;0.28;66.59
64460;BME280;50828;53.756;21.140;2022-12-10T15:33:28;99208.73;;;0.25;66.53
64460;BME280;50828;53.756;21.140;2022-12-10T15:38:39;99207.02;;;0.23;66.58
64460;BME280;50828;53.756;21.140;2022-12-10T15:43:56;99210.85;;;0.22;66.62
64460;BME280;50828;53.756;21.140;2022-12-10T15:49:04;99211.22;;;0.20;66.64
64460;BME280;50828;53.756;21.140;2022-12-10T15:54:21;99209.83;;;0.20;66.75
64460;BME280;50828;53.756;21.140;2022-12-10T15:59:29;99198.33;;;0.12;66.72
64460;BME280;50828;53.756;21.140;2022-12-10T16:04:36;99214.16;;;0.19;66.80
64460;BME280;50828;53.756;21.140;2022-12-10T16:09:44;99210.23;;;0.17;66.66
64460;BME280;50828;53.756;21.140;2022-12-10T16:14:52;99214.90;;;0.16;66.89
64460;BME280;50828;53.756;21.140;2022-12-10T16:20:12;99214.04;;;0.16;66.75
64460;BME280;50828;53.756;21.140;2022-12-10T16:25:22;99206.27;;;0.15;66.57
64460;BME280;50828;53.756;21.140;2022-12-10T16:30:35;99204.02;;;0.14;66.84
64460;BME280;50828;53.756;21.140;2022-12-10T16:35:52;99211.51;;;0.11;66.48
64460;BME280;50828;53.756;21.140;2022-12-10T16:41:00;99214.85;;;0.07;66.43
64460;BME280;50828;53.756;21.140;2022-12-10T16:46:09;99214.39;;;0.02;66.43
64460;BME280;50828;53.756;21.140;2022-12-10T16:51:20;99212.53;;;-0.03;66.38
64460;BME280;50828;53.756;21.140;2022-12-10T16:56:29;99208.08;;;-0.07;66.30
64460;BME280;50828;53.756;21.140;2022-12-10T17:01:36;99202.06;;;-0.11;66.53
64460;BME280;50828;53.756;21.140;2022-12-10T17:06:44;99195.86;;;-0.13;66.64
64460;BME280;50828;53.756;21.140;2022-12-10T17:11:51;99181.95;;;-0.21;66.43
64460;BME280;50828;53.756;21.140;2022-12-10T17:16:59;99198.66;;;-0.15;66.55
64460;BME280;50828;53.756;21.140;2022-12-10T17:22:09;99202.32;;;-0.19;66.55
64460;BME280;50828;53.756;21.140;2022-12-10T17:27:19;99205.10;;;-0.20;66.62
64460;BME280;50828;53.756;21.140;2022-12-10T17:32:27;99212.03;;;-0.20;66.54
64460;BME280;50828;53.756;21.140;2022-12-10T17:37:36;99218.98;;;-0.23;66.56
64460;BME280;50828;53.756;21.140;2022-12-10T17:42:44;99224.54;;;-0.25;66.52
64460;BME280;50828;53.756;21.140;2022-12-10T17:47:51;99225.95;;;-0.27;66.41
64460;BME280;50828;53.756;21.140;2022-12-10T17:52:58;99232.91;;;-0.31;66.55
64460;BME280;50828;53.756;21.140;2022-12-10T17:58:06;99229.29;;;-0.33;66.48
64460;BME280;50828;53.756;21.140;2022-12-10T18:03:13;99240.89;;;-0.35;66.63
64460;BME280;50828;53.756;21.140;2022-12-10T18:08:20;99247.68;;;-0.39;66.49
64460;BME280;50828;53.756;21.140;2022-12-10T18:13:28;99255.67;;;-0.40;66.48
64460;BME280;50828;53.756;21.140;2022-12-10T18:18:36;99247.08;;;-0.47;66.52
64460;BME280;50828;53.756;21.140;2022-12-10T18:23:43;99254.36;;;-0.49;66.47
64460;BME280;50828;53.756;21.140;2022-12-10T18:28:53;99257.35;;;-0.54;66.48
64460;BME280;50828;53.756;21.140;2022-12-10T18:34:02;99249.63;;;-0.61;66.42
64460;BME280;50828;53.756;21.140;2022-12-10T18:39:17;99252.08;;;-0.65;66.43
64460;BME280;50828;53.756;21.140;2022-12-10T18:44:26;99242.63;;;-0.72;66.36
64460;BME280;50828;53.756;21.140;2022-12-10T18:49:37;99236.78;;;-0.76;66.45
64460;BME280;50828;53.756;21.140;2022-12-10T18:54:45;99237.34;;;-0.82;66.45
64460;BME280;50828;53.756;21.140;2022-12-10T18:59:52;99243.60;;;-0.86;66.53
64460;BME280;50828;53.756;21.140;2022-12-10T19:05:00;99249.50;;;-0.89;66.60
64460;BME280;50828;53.756;21.140;2022-12-10T19:10:14;99253.50;;;-0.92;66.57
64460;BME280;50828;53.756;21.140;2022-12-10T19:15:22;99253.88;;;-0.96;66.69
64460;BME280;50828;53.756;21.140;2022-12-10T19:20:31;99252.69;;;-0.99;66.55
64460;BME280;50828;53.756;21.140;2022-12-10T19:25:38;99259.64;;;-1.04;66.66
64460;BME280;50828;53.756;21.140;2022-12-10T19:30:46;99264.16;;;-1.09;66.62
64460;BME280;50828;53.756;21.140;2022-12-10T19:35:53;99271.63;;;-1.14;66.78
64460;BME280;50828;53.756;21.140;2022-12-10T19:41:01;99280.95;;;-1.15;66.93
64460;BME280;50828;53.756;21.140;2022-12-10T19:46:14;99279.05;;;-1.16;66.96
64460;BME280;50828;53.756;21.140;2022-12-10T19:51:22;99273.56;;;-1.18;66.94
64460;BME280;50828;53.756;21.140;2022-12-10T19:56:31;99271.84;;;-1.21;66.90
64460;BME280;50828;53.756;21.140;2022-12-10T20:01:39;99272.20;;;-1.24;66.91
64460;BME280;50828;53.756;21.140;2022-12-10T20:06:47;99267.03;;;-1.26;66.98
64460;BME280;50828;53.756;21.140;2022-12-10T20:11:55;99261.69;;;-1.27;67.00
64460;BME280;50828;53.756;21.140;2022-12-10T20:17:03;99260.31;;;-1.27;67.01
64460;BME280;50828;53.756;21.140;2022-12-10T20:22:10;99257.70;;;-1.26;67.13
64460;BME280;50828;53.756;21.140;2022-12-10T20:27:18;99243.70;;;-1.27;66.98
64460;BME280;50828;53.756;21.140;2022-12-10T20:32:25;99237.51;;;-1.28;67.08
64460;BME280;50828;53.756;21.140;2022-12-10T20:37:33;99250.13;;;-1.28;67.09
64460;BME280;50828;53.756;21.140;2022-12-10T20:42:40;99255.99;;;-1.30;66.99
64460;BME280;50828;53.756;21.140;2022-12-10T20:47:47;99251.34;;;-1.31;67.10
64460;BME280;50828;53.756;21.140;2022-12-10T20:52:54;99253.41;;;-1.31;67.16
64460;BME280;50828;53.756;21.140;2022-12-10T20:58:02;99254.45;;;-1.31;67.20
64460;BME280;50828;53.756;21.140;2022-12-10T21:03:09;99257.39;;;-1.31;67.18
64460;BME280;50828;53.756;21.140;2022-12-10T21:08:17;99260.33;;;-1.31;67.24
64460;BME280;50828;53.756;21.140;2022-12-10T21:13:28;99262.57;;;-1.31;67.18
64460;BME280;50828;53.756;21.140;2022-12-10T21:18:35;99262.92;;;-1.33;67.17
64460;BME280;50828;53.756;21.140;2022-12-10T21:23:43;99263.09;;;-1.33;67.07
64460;BME280;50828;53.756;21.140;2022-12-10T21:28:50;99253.27;;;-1.36;67.28
64460;BME280;50828;53.756;21.140;2022-12-10T21:33:58;99246.36;;;-1.36;67.22
64460;BME280;50828;53.756;21.140;2022-12-10T21:39:06;99226.67;;;-1.37;67.22
64460;BME280;50828;53.756;21.140;2022-12-10T21:44:14;99218.05;;;-1.40;67.14
64460;BME280;50828;53.756;21.140;2022-12-10T21:49:21;99228.94;;;-1.41;67.14
64460;BME280;50828;53.756;21.140;2022-12-10T21:54:29;99232.92;;;-1.43;67.09
64460;BME280;50828;53.756;21.140;2022-12-10T21:59:36;99229.84;;;-1.45;67.05
64460;BME280;50828;53.756;21.140;2022-12-10T22:04:43;99229.84;;;-1.48;67.03
64460;BME280;50828;53.756;21.140;2022-12-10T22:09:50;99230.05;;;-1.52;67.15
64460;BME280;50828;53.756;21.140;2022-12-10T22:14:57;99230.40;;;-1.55;67.06
64460;BME280;50828;53.756;21.140;2022-12-10T22:20:06;99221.25;;;-1.56;67.20
64460;BME280;50828;53.756;21.140;2022-12-10T22:25:14;99210.73;;;-1.58;67.35
64460;BME280;50828;53.756;21.140;2022-12-10T22:30:21;99205.72;;;-1.58;67.22
64460;BME280;50828;53.756;21.140;2022-12-10T22:35:29;99200.90;;;-1.60;67.24
64460;BME280;50828;53.756;21.140;2022-12-10T22:40:36;99187.14;;;-1.70;67.28
64460;BME280;50828;53.756;21.140;2022-12-10T22:45:43;99195.57;;;-1.64;67.24
64460;BME280;50828;53.756;21.140;2022-12-10T22:50:57;99196.11;;;-1.70;67.17
64460;BME280;50828;53.756;21.140;2022-12-10T22:56:07;99197.88;;;-1.78;67.20
64460;BME280;50828;53.756;21.140;2022-12-10T23:01:18;99199.30;;;-1.88;67.23
64460;BME280;50828;53.756;21.140;2022-12-10T23:06:26;99198.48;;;-1.99;67.37
64460;BME280;50828;53.756;21.140;2022-12-10T23:11:34;99199.55;;;-2.08;67.63
64460;BME280;50828;53.756;21.140;2022-12-10T23:16:41;99200.95;;;-2.15;67.59
64460;BME280;50828;53.756;21.140;2022-12-10T23:21:48;99206.85;;;-2.22;67.69
64460;BME280;50828;53.756;21.140;2022-12-10T23:26:55;99208.41;;;-2.26;67.80
64460;BME280;50828;53.756;21.140;2022-12-10T23:32:02;99197.91;;;-2.29;67.85
64460;BME280;50828;53.756;21.140;2022-12-10T23:37:10;99196.17;;;-2.31;67.90
64460;BME280;50828;53.756;21.140;2022-12-10T23:42:18;99200.49;;;-2.32;68.08
64460;BME280;50828;53.756;21.140;2022-12-10T23:47:25;99210.16;;;-2.32;68.03
64460;BME280;50828;53.756;21.140;2022-12-10T23:52:32;99212.91;;;-2.32;68.10
64460;BME280;50828;53.756;21.140;2022-12-10T23:57:40;99207.40;;;-2.31;68.17
